sensor_id;sensor_type;location;lat;lon;timestamp;P1;durP1;ratioP1;P2;durP2;ratioP2
69779;SDS011;57052;55.602;38.096;2024-02-26T00:02:15;9.27;;;2.50;;
69779;SDS011;57052;55.602;38.096;2024-02-26T00:04:41;5.72;;;2.60;;
69779;SDS011;57052;55.602;38.096;2024-02-26T00:07:07;5.80;;;2.53;;
69779;SDS011;57052;55.602;38.096;2024-02-26T00:09:33;5.78;;;2.45;;
69779;SDS011;57052;55.602;38.096;2024-02-26T00:12:01;6.03;;;2.33;;
69779;SDS011;57052;55.602;38.096;2024-02-26T00:14:31;5.82;;;2.22;;
69779;SDS011;57052;55.602;38.096;2024-02-26T00:16:57;6.13;;;2.80;;
69779;SDS011;57052;55.602;38.096;2024-02-26T00:19:23;5.18;;;2.40;;
69779;SDS011;57052;55.602;38.096;2024-02-26T00:21:48;4.72;;;2.45;;
69779;SDS011;57052;55.602;38.096;2024-02-26T00:24:14;7.13;;;2.45;;
69779;SDS011;57052;55.602;38.096;2024-02-26T00:26:40;6.70;;;2.55;;
69779;SDS011;57052;55.602;38.096;2024-02-26T00:29:05;7.05;;;2.67;;
69779;SDS011;57052;55.602;38.096;2024-02-26T00:31:31;5.75;;;2.47;;
69779;SDS011;57052;55.602;38.096;2024-02-26T00:33:57;7.88;;;2.70;;
69779;SDS011;57052;55.602;38.096;2024-02-26T00:36:23;5.97;;;2.45;;
69779;SDS011;57052;55.602;38.096;2024-02-26T00:38:48;5.25;;;2.20;;
69779;SDS011;57052;55.602;38.096;2024-02-26T00:41:16;5.95;;;2.30;;
69779;SDS011;57052;55.602;38.096;2024-02-26T00:43:43;5.03;;;2.20;;
69779;SDS011;57052;55.602;38.096;2024-02-26T00:46:08;5.65;;;2.08;;
69779;SDS011;57052;55.602;38.096;2024-02-26T00:48:35;6.25;;;2.33;;
69779;SDS011;57052;55.602;38.096;2024-02-26T00:51:02;5.25;;;2.05;;
69779;SDS011;57052;55.602;38.096;2024-02-26T00:53:30;4.78;;;2.20;;
69779;SDS011;57052;55.602;38.096;2024-02-26T00:55:57;6.07;;;2.50;;
69779;SDS011;57052;55.602;38.096;2024-02-26T00:58:24;5.43;;;2.08;;
69779;SDS011;57052;55.602;38.096;2024-02-26T01:00:51;6.05;;;2.30;;
69779;SDS011;57052;55.602;38.096;2024-02-26T01:03:19;4.05;;;1.88;;
69779;SDS011;57052;55.602;38.096;2024-02-26T01:05:45;5.93;;;2.00;;
69779;SDS011;57052;55.602;38.096;2024-02-26T01:08:11;8.27;;;2.40;;
69779;SDS011;57052;55.602;38.096;2024-02-26T01:10:36;6.88;;;2.10;;
69779;SDS011;57052;55.602;38.096;2024-02-26T01:13:02;5.25;;;2.20;;
69779;SDS011;57052;55.602;38.096;2024-02-26T01:15:28;6.50;;;2.47;;
69779;SDS011;57052;55.602;38.096;2024-02-26T01:17:54;8.25;;;2.53;;
69779;SDS011;57052;55.602;38.096;2024-02-26T01:20:20;5.85;;;2.40;;
69779;SDS011;57052;55.602;38.096;2024-02-26T01:22:46;5.30;;;2.38;;
69779;SDS011;57052;55.602;38.096;2024-02-26T01:25:12;7.85;;;2.28;;
69779;SDS011;57052;55.602;38.096;2024-02-26T01:27:38;6.00;;;2.25;;
69779;SDS011;57052;55.602;38.096;2024-02-26T01:30:06;5.20;;;2.28;;
69779;SDS011;57052;55.602;38.096;2024-02-26T01:32:32;5.57;;;2.28;;
69779;SDS011;57052;55.602;38.096;2024-02-26T01:34:58;5.38;;;2.10;;
69779;SDS011;57052;55.602;38.096;2024-02-26T01:37:24;4.63;;;2.25;;
69779;SDS011;57052;55.602;38.096;2024-02-26T01:39:50;7.00;;;2.05;;
69779;SDS011;57052;55.602;38.096;2024-02-26T01:42:15;7.53;;;2.08;;
69779;SDS011;57052;55.602;38.096;2024-02-26T01:44:41;3.80;;;2.00;;
69779;SDS011;57052;55.602;38.096;2024-02-26T01:47:08;5.95;;;2.40;;
69779;SDS011;57052;55.602;38.096;2024-02-26T01:49:36;5.82;;;2.05;;
69779;SDS011;57052;55.602;38.096;2024-02-26T01:52:04;4.20;;;1.98;;
69779;SDS011;57052;55.602;38.096;2024-02-26T01:54:36;6.43;;;2.17;;
69779;SDS011;57052;55.602;38.096;2024-02-26T01:57:06;4.35;;;1.80;;
69779;SDS011;57052;55.602;38.096;2024-02-26T01:59:33;6.20;;;1.92;;
69779;SDS011;57052;55.602;38.096;2024-02-26T02:02:01;6.03;;;1.95;;
69779;SDS011;57052;55.602;38.096;2024-02-26T02:04:28;6.10;;;2.25;;
69779;SDS011;57052;55.602;38.096;2024-02-26T02:06:55;5.75;;;2.30;;
69779;SDS011;57052;55.602;38.096;2024-02-26T02:09:23;5.53;;;2.30;;
69779;SDS011;57052;55.602;38.096;2024-02-26T02:11:49;5.55;;;2.03;;
69779;SDS011;57052;55.602;38.096;2024-02-26T02:14:15;7.35;;;2.20;;
69779;SDS011;57052;55.602;38.096;2024-02-26T02:16:41;5.72;;;2.20;;
69779;SDS011;57052;55.602;38.096;2024-02-26T02:19:07;3.95;;;1.80;;
69779;SDS011;57052;55.602;38.096;2024-02-26T02:21:32;5.50;;;2.30;;
69779;SDS011;57052;55.602;38.096;2024-02-26T02:23:58;5.18;;;2.00;;
69779;SDS011;57052;55.602;38.096;2024-02-26T02:26:24;5.63;;;2.30;;
69779;SDS011;57052;55.602;38.096;2024-02-26T02:28:50;5.32;;;2.20;;
69779;SDS011;57052;55.602;38.096;2024-02-26T02:31:16;6.50;;;2.35;;
69779;SDS011;57052;55.602;38.096;2024-02-26T02:33:42;4.38;;;1.83;;
69779;SDS011;57052;55.602;38.096;2024-02-26T02:36:08;4.95;;;2.13;;
69779;SDS011;57052;55.602;38.096;2024-02-26T02:38:36;5.50;;;2.10;;
69779;SDS011;57052;55.602;38.096;2024-02-26T02:41:15;4.57;;;1.98;;
69779;SDS011;57052;55.602;38.096;2024-02-26T02:43:41;5.10;;;2.20;;
69779;SDS011;57052;55.602;38.096;2024-02-26T02:46:06;7.63;;;2.60;;
69779;SDS011;57052;55.602;38.096;2024-02-26T02:48:32;5.40;;;2.10;;
69779;SDS011;57052;55.602;38.096;2024-02-26T02:50:58;4.85;;;1.92;;
69779;SDS011;57052;55.602;38.096;2024-02-26T02:53:23;5.95;;;1.90;;
69779;SDS011;57052;55.602;38.096;2024-02-26T02:55:49;7.18;;;2.25;;
69779;SDS011;57052;55.602;38.096;2024-02-26T02:58:15;4.05;;;2.05;;
69779;SDS011;57052;55.602;38.096;2024-02-26T03:00:41;5.78;;;2.13;;
69779;SDS011;57052;55.602;38.096;2024-02-26T03:03:06;7.50;;;1.95;;
69779;SDS011;57052;55.602;38.096;2024-02-26T03:05:32;6.72;;;2.00;;
69779;SDS011;57052;55.602;38.096;2024-02-26T03:07:58;6.22;;;1.85;;
69779;SDS011;57052;55.602;38.096;2024-02-26T03:10:23;4.28;;;1.85;;
69779;SDS011;57052;55.602;38.096;2024-02-26T03:12:49;5.57;;;2.10;;
69779;SDS011;57052;55.602;38.096;2024-02-26T03:15:15;7.00;;;2.45;;
69779;SDS011;57052;55.602;38.096;2024-02-26T03:17:41;5.05;;;2.05;;
69779;SDS011;57052;55.602;38.096;2024-02-26T03:20:07;5.97;;;2.00;;
69779;SDS011;57052;55.602;38.096;2024-02-26T03:22:34;5.85;;;2.38;;
69779;SDS011;57052;55.602;38.096;2024-02-26T03:25:01;10.02;;;2.40;;
69779;SDS011;57052;55.602;38.096;2024-02-26T03:27:30;6.05;;;2.00;;
69779;SDS011;57052;55.602;38.096;2024-02-26T03:29:56;5.38;;;2.13;;
69779;SDS011;57052;55.602;38.096;2024-02-26T03:32:22;6.55;;;2.20;;
69779;SDS011;57052;55.602;38.096;2024-02-26T03:34:48;6.22;;;2.70;;
69779;SDS011;57052;55.602;38.096;2024-02-26T03:37:13;8.35;;;2.80;;
69779;SDS011;57052;55.602;38.096;2024-02-26T03:39:40;4.88;;;2.05;;
69779;SDS011;57052;55.602;38.096;2024-02-26T03:42:06;3.22;;;1.75;;
69779;SDS011;57052;55.602;38.096;2024-02-26T03:44:32;5.32;;;1.98;;
69779;SDS011;57052;55.602;38.096;2024-02-26T03:46:57;4.35;;;2.08;;
69779;SDS011;57052;55.602;38.096;2024-02-26T03:49:23;4.72;;;2.33;;
69779;SDS011;57052;55.602;38.096;2024-02-26T03:51:49;6.95;;;2.25;;
69779;SDS011;57052;55.602;38.096;2024-02-26T03:54:14;7.32;;;2.50;;
69779;SDS011;57052;55.602;38.096;2024-02-26T03:56:40;6.65;;;2.03;;
69779;SDS011;57052;55.602;38.096;2024-02-26T03:59:06;6.80;;;2.50;;
69779;SDS011;57052;55.602;38.096;2024-02-26T04:01:31;4.63;;;2.10;;
69779;SDS011;57052;55.602;38.096;2024-02-26T04:03:57;6.97;;;2.30;;
69779;SDS011;57052;55.602;38.096;2024-02-26T04:06:23;3.63;;;2.20;;
69779;SDS011;57052;55.602;38.096;2024-02-26T04:08:49;7.30;;;2.40;;
69779;SDS011;57052;55.602;38.096;2024-02-26T04:11:14;5.45;;;2.17;;
69779;SDS011;57052;55.602;38.096;2024-02-26T04:13:43;5.45;;;2.50;;
69779;SDS011;57052;55.602;38.096;2024-02-26T04:16:15;6.55;;;2.03;;
69779;SDS011;57052;55.602;38.096;2024-02-26T04:18:42;5.18;;;2.13;;
69779;SDS011;57052;55.602;38.096;2024-02-26T04:21:08;5.28;;;2.00;;
69779;SDS011;57052;55.602;38.096;2024-02-26T04:23:33;4.32;;;2.20;;
69779;SDS011;57052;55.602;38.096;2024-02-26T04:25:59;7.03;;;2.92;;
69779;SDS011;57052;55.602;38.096;2024-02-26T04:28:25;5.10;;;2.20;;
69779;SDS011;57052;55.602;38.096;2024-02-26T04:30:54;4.53;;;2.40;;
69779;SDS011;57052;55.602;38.096;2024-02-26T04:33:20;9.15;;;2.88;;
69779;SDS011;57052;55.602;38.096;2024-02-26T04:35:45;6.43;;;2.40;;
69779;SDS011;57052;55.602;38.096;2024-02-26T04:38:11;6.45;;;2.63;;
69779;SDS011;57052;55.602;38.096;2024-02-26T04:40:37;7.70;;;3.10;;
69779;SDS011;57052;55.602;38.096;2024-02-26T04:43:03;6.90;;;2.53;;
69779;SDS011;57052;55.602;38.096;2024-02-26T04:45:28;9.40;;;2.22;;
69779;SDS011;57052;55.602;38.096;2024-02-26T04:47:54;5.95;;;2.47;;
69779;SDS011;57052;55.602;38.096;2024-02-26T04:50:20;7.30;;;2.85;;
69779;SDS011;57052;55.602;38.096;2024-02-26T04:52:46;6.32;;;2.40;;
69779;SDS011;57052;55.602;38.096;2024-02-26T04:55:11;6.95;;;2.80;;
69779;SDS011;57052;55.602;38.096;2024-02-26T04:57:37;7.50;;;2.58;;
69779;SDS011;57052;55.602;38.096;2024-02-26T05:00:03;9.88;;;2.60;;
69779;SDS011;57052;55.602;38.096;2024-02-26T05:02:30;10.13;;;2.60;;
69779;SDS011;57052;55.602;38.096;2024-02-26T05:04:58;4.95;;;2.33;;
69779;SDS011;57052;55.602;38.096;2024-02-26T05:07:24;6.68;;;2.45;;
69779;SDS011;57052;55.602;38.096;2024-02-26T05:09:50;5.63;;;2.55;;
69779;SDS011;57052;55.602;38.096;2024-02-26T05:12:15;6.47;;;2.55;;
69779;SDS011;57052;55.602;38.096;2024-02-26T05:14:41;6.50;;;2.17;;
69779;SDS011;57052;55.602;38.096;2024-02-26T05:17:08;5.25;;;2.20;;
69779;SDS011;57052;55.602;38.096;2024-02-26T05:19:34;7.22;;;2.70;;
69779;SDS011;57052;55.602;38.096;2024-02-26T05:21:59;6.15;;;2.47;;
69779;SDS011;57052;55.602;38.096;2024-02-26T05:24:25;6.93;;;2.60;;
69779;SDS011;57052;55.602;38.096;2024-02-26T05:26:51;6.72;;;2.40;;
69779;SDS011;57052;55.602;38.096;2024-02-26T05:29:17;5.80;;;2.45;;
69779;SDS011;57052;55.602;38.096;2024-02-26T05:31:42;8.48;;;2.83;;
69779;SDS011;57052;55.602;38.096;2024-02-26T05:34:27;5.57;;;2.53;;
69779;SDS011;57052;55.602;38.096;2024-02-26T05:36:52;6.75;;;2.63;;
69779;SDS011;57052;55.602;38.096;2024-02-26T05:39:18;11.48;;;2.80;;
69779;SDS011;57052;55.602;38.096;2024-02-26T05:41:44;7.18;;;2.60;;
69779;SDS011;57052;55.602;38.096;2024-02-26T05:44:28;5.00;;;2.38;;
69779;SDS011;57052;55.602;38.096;2024-02-26T05:46:54;5.93;;;2.80;;
69779;SDS011;57052;55.602;38.096;2024-02-26T05:49:19;8.60;;;2.47;;
69779;SDS011;57052;55.602;38.096;2024-02-26T05:51:46;7.88;;;3.40;;
69779;SDS011;57052;55.602;38.096;2024-02-26T05:54:12;7.00;;;2.30;;
69779;SDS011;57052;55.602;38.096;2024-02-26T05:56:38;6.55;;;2.63;;
69779;SDS011;57052;55.602;38.096;2024-02-26T05:59:03;10.75;;;2.53;;
69779;SDS011;57052;55.602;38.096;2024-02-26T06:01:29;5.85;;;2.33;;
69779;SDS011;57052;55.602;38.096;2024-02-26T06:03:55;8.20;;;2.70;;
69779;SDS011;57052;55.602;38.096;2024-02-26T06:06:21;8.00;;;2.58;;
69779;SDS011;57052;55.602;38.096;2024-02-26T06:08:48;6.68;;;2.42;;
69779;SDS011;57052;55.602;38.096;2024-02-26T06:11:14;11.65;;;3.15;;
69779;SDS011;57052;55.602;38.096;2024-02-26T06:13:40;7.63;;;2.80;;
69779;SDS011;57052;55.602;38.096;2024-02-26T06:16:07;5.82;;;2.60;;
69779;SDS011;57052;55.602;38.096;2024-02-26T06:18:33;7.90;;;2.90;;
69779;SDS011;57052;55.602;38.096;2024-02-26T06:21:00;7.35;;;3.00;;
69779;SDS011;57052;55.602;38.096;2024-02-26T06:23:25;7.07;;;2.60;;
69779;SDS011;57052;55.602;38.096;2024-02-26T06:25:51;6.28;;;2.90;;
69779;SDS011;57052;55.602;38.096;2024-02-26T06:28:17;11.27;;;3.10;;
69779;SDS011;57052;55.602;38.096;2024-02-26T06:30:43;9.57;;;2.88;;
69779;SDS011;57052;55.602;38.096;2024-02-26T06:33:09;8.73;;;2.83;;
69779;SDS011;57052;55.602;38.096;2024-02-26T06:35:36;8.95;;;2.83;;
69779;SDS011;57052;55.602;38.096;2024-02-26T06:38:01;8.80;;;2.85;;
69779;SDS011;57052;55.602;38.096;2024-02-26T06:40:27;6.95;;;2.60;;
69779;SDS011;57052;55.602;38.096;2024-02-26T06:42:53;8.23;;;2.83;;
69779;SDS011;57052;55.602;38.096;2024-02-26T06:45:19;7.40;;;2.95;;
69779;SDS011;57052;55.602;38.096;2024-02-26T06:47:47;7.38;;;2.97;;
69779;SDS011;57052;55.602;38.096;2024-02-26T06:50:13;6.03;;;2.90;;
69779;SDS011;57052;55.602;38.096;2024-02-26T06:52:39;7.80;;;2.70;;
69779;SDS011;57052;55.602;38.096;2024-02-26T06:55:05;7.35;;;2.92;;
69779;SDS011;57052;55.602;38.096;2024-02-26T06:57:33;7.80;;;3.25;;
69779;SDS011;57052;55.602;38.096;2024-02-26T06:59:59;8.63;;;2.75;;
69779;SDS011;57052;55.602;38.096;2024-02-26T07:02:24;8.98;;;2.92;;
69779;SDS011;57052;55.602;38.096;2024-02-26T07:04:50;9.02;;;2.67;;
69779;SDS011;57052;55.602;38.096;2024-02-26T07:07:16;5.65;;;2.33;;
69779;SDS011;57052;55.602;38.096;2024-02-26T07:09:44;7.13;;;2.70;;
69779;SDS011;57052;55.602;38.096;2024-02-26T07:12:09;8.73;;;2.78;;
69779;SDS011;57052;55.602;38.096;2024-02-26T07:14:35;8.15;;;2.75;;
69779;SDS011;57052;55.602;38.096;2024-02-26T07:17:02;7.07;;;2.78;;
69779;SDS011;57052;55.602;38.096;2024-02-26T07:19:28;8.32;;;3.30;;
69779;SDS011;57052;55.602;38.096;2024-02-26T07:21:54;6.75;;;2.75;;
69779;SDS011;57052;55.602;38.096;2024-02-26T07:24:20;6.40;;;3.28;;
69779;SDS011;57052;55.602;38.096;2024-02-26T07:26:46;9.18;;;3.03;;
69779;SDS011;57052;55.602;38.096;2024-02-26T07:29:12;7.07;;;2.85;;
69779;SDS011;57052;55.602;38.096;2024-02-26T07:31:38;8.77;;;3.20;;
69779;SDS011;57052;55.602;38.096;2024-02-26T07:34:04;8.05;;;3.10;;
69779;SDS011;57052;55.602;38.096;2024-02-26T07:36:30;6.65;;;2.53;;
69779;SDS011;57052;55.602;38.096;2024-02-26T07:38:56;8.65;;;2.92;;
69779;SDS011;57052;55.602;38.096;2024-02-26T07:41:21;8.05;;;3.47;;
69779;SDS011;57052;55.602;38.096;2024-02-26T07:43:47;6.97;;;2.95;;
69779;SDS011;57052;55.602;38.096;2024-02-26T07:46:13;7.97;;;3.13;;
69779;SDS011;57052;55.602;38.096;2024-02-26T07:48:39;7.25;;;2.50;;
69779;SDS011;57052;55.602;38.096;2024-02-26T07:51:06;7.07;;;3.17;;
69779;SDS011;57052;55.602;38.096;2024-02-26T07:53:32;7.88;;;2.95;;
69779;SDS011;57052;55.602;38.096;2024-02-26T07:55:57;6.95;;;3.00;;
69779;SDS011;57052;55.602;38.096;2024-02-26T07:58:23;9.02;;;3.08;;
69779;SDS011;57052;55.602;38.096;2024-02-26T08:00:49;6.38;;;2.85;;
69779;SDS011;57052;55.602;38.096;2024-02-26T08:03:15;8.88;;;3.22;;
69779;SDS011;57052;55.602;38.096;2024-02-26T08:05:41;7.20;;;3.00;;
69779;SDS011;57052;55.602;38.096;2024-02-26T08:08:08;6.05;;;2.65;;
69779;SDS011;57052;55.602;38.096;2024-02-26T08:10:34;8.38;;;2.90;;
69779;SDS011;57052;55.602;38.096;2024-02-26T08:13:00;7.68;;;2.90;;
69779;SDS011;57052;55.602;38.096;2024-02-26T08:15:31;7.00;;;2.80;;
69779;SDS011;57052;55.602;38.096;2024-02-26T08:17:57;7.03;;;3.28;;
69779;SDS011;57052;55.602;38.096;2024-02-26T08:20:23;12.05;;;3.15;;
69779;SDS011;57052;55.602;38.096;2024-02-26T08:22:49;8.82;;;3.03;;
69779;SDS011;57052;55.602;38.096;2024-02-26T08:25:14;9.07;;;2.80;;
69779;SDS011;57052;55.602;38.096;2024-02-26T08:27:41;6.93;;;2.75;;
69779;SDS011;57052;55.602;38.096;2024-02-26T08:30:07;7.07;;;3.03;;
69779;SDS011;57052;55.602;38.096;2024-02-26T08:32:33;8.63;;;3.20;;
69779;SDS011;57052;55.602;38.096;2024-02-26T08:34:59;9.98;;;3.13;;
69779;SDS011;57052;55.602;38.096;2024-02-26T08:37:24;6.93;;;2.80;;
69779;SDS011;57052;55.602;38.096;2024-02-26T08:39:50;9.23;;;3.17;;
69779;SDS011;57052;55.602;38.096;2024-02-26T08:42:16;7.35;;;2.90;;
69779;SDS011;57052;55.602;38.096;2024-02-26T08:44:41;7.63;;;3.17;;
69779;SDS011;57052;55.602;38.096;2024-02-26T08:47:07;8.00;;;3.42;;
69779;SDS011;57052;55.602;38.096;2024-02-26T08:49:33;6.47;;;2.75;;
69779;SDS011;57052;55.602;38.096;2024-02-26T08:51:58;6.28;;;2.88;;
69779;SDS011;57052;55.602;38.096;2024-02-26T08:54:24;12.15;;;2.50;;
69779;SDS011;57052;55.602;38.096;2024-02-26T08:56:50;7.88;;;3.00;;
69779;SDS011;57052;55.602;38.096;2024-02-26T08:59:15;6.18;;;3.00;;
69779;SDS011;57052;55.602;38.096;2024-02-26T09:01:41;8.80;;;3.15;;
69779;SDS011;57052;55.602;38.096;2024-02-26T09:04:07;8.20;;;3.33;;
69779;SDS011;57052;55.602;38.096;2024-02-26T09:06:52;11.60;;;3.08;;
69779;SDS011;57052;55.602;38.096;2024-02-26T09:09:19;12.23;;;3.17;;
69779;SDS011;57052;55.602;38.096;2024-02-26T09:11:45;8.70;;;3.45;;
69779;SDS011;57052;55.602;38.096;2024-02-26T09:14:12;9.85;;;2.95;;
69779;SDS011;57052;55.602;38.096;2024-02-26T09:16:38;9.32;;;3.05;;
69779;SDS011;57052;55.602;38.096;2024-02-26T09:19:03;4.47;;;2.33;;
69779;SDS011;57052;55.602;38.096;2024-02-26T09:21:48;9.55;;;3.00;;
69779;SDS011;57052;55.602;38.096;2024-02-26T09:24:13;6.38;;;2.90;;
69779;SDS011;57052;55.602;38.096;2024-02-26T09:26:40;8.98;;;3.40;;
69779;SDS011;57052;55.602;38.096;2024-02-26T09:29:05;10.30;;;3.20;;
69779;SDS011;57052;55.602;38.096;2024-02-26T09:31:31;10.23;;;3.33;;
69779;SDS011;57052;55.602;38.096;2024-02-26T09:33:57;10.52;;;3.55;;
69779;SDS011;57052;55.602;38.096;2024-02-26T09:36:23;9.15;;;2.78;;
69779;SDS011;57052;55.602;38.096;2024-02-26T09:38:48;8.75;;;3.05;;
69779;SDS011;57052;55.602;38.096;2024-02-26T09:41:14;8.40;;;3.13;;
69779;SDS011;57052;55.602;38.096;2024-02-26T09:43:44;9.43;;;2.90;;
69779;SDS011;57052;55.602;38.096;2024-02-26T09:46:11;7.57;;;2.88;;
69779;SDS011;57052;55.602;38.096;2024-02-26T09:48:38;7.57;;;3.00;;
69779;SDS011;57052;55.602;38.096;2024-02-26T09:51:03;6.50;;;3.10;;
69779;SDS011;57052;55.602;38.096;2024-02-26T09:53:31;8.27;;;3.10;;
69779;SDS011;57052;55.602;38.096;2024-02-26T09:56:00;10.50;;;3.67;;
69779;SDS011;57052;55.602;38.096;2024-02-26T09:58:28;8.35;;;3.28;;
69779;SDS011;57052;55.602;38.096;2024-02-26T10:00:56;7.75;;;3.13;;
69779;SDS011;57052;55.602;38.096;2024-02-26T10:03:28;9.98;;;3.10;;
69779;SDS011;57052;55.602;38.096;2024-02-26T10:08:44;7.50;;;3.00;;
69779;SDS011;57052;55.602;38.096;2024-02-26T10:11:10;7.40;;;3.25;;
69779;SDS011;57052;55.602;38.096;2024-02-26T10:13:37;9.82;;;3.28;;
69779;SDS011;57052;55.602;38.096;2024-02-26T10:16:03;8.93;;;3.25;;
69779;SDS011;57052;55.602;38.096;2024-02-26T10:18:48;12.63;;;3.55;;
69779;SDS011;57052;55.602;38.096;2024-02-26T10:21:18;7.65;;;2.90;;
69779;SDS011;57052;55.602;38.096;2024-02-26T10:23:48;6.82;;;3.10;;
69779;SDS011;57052;55.602;38.096;2024-02-26T10:26:14;10.50;;;3.30;;
69779;SDS011;57052;55.602;38.096;2024-02-26T10:28:41;8.43;;;3.65;;
69779;SDS011;57052;55.602;38.096;2024-02-26T10:31:09;10.95;;;3.30;;
69779;SDS011;57052;55.602;38.096;2024-02-26T10:33:36;8.93;;;3.22;;
69779;SDS011;57052;55.602;38.096;2024-02-26T10:36:03;7.70;;;3.45;;
69779;SDS011;57052;55.602;38.096;2024-02-26T10:38:30;11.05;;;3.70;;
69779;SDS011;57052;55.602;38.096;2024-02-26T10:40:57;9.38;;;3.47;;
69779;SDS011;57052;55.602;38.096;2024-02-26T10:43:23;7.88;;;3.08;;
69779;SDS011;57052;55.602;38.096;2024-02-26T10:45:50;8.00;;;3.35;;
69779;SDS011;57052;55.602;38.096;2024-02-26T10:48:16;11.20;;;3.30;;
69779;SDS011;57052;55.602;38.096;2024-02-26T10:50:43;12.73;;;3.42;;
69779;SDS011;57052;55.602;38.096;2024-02-26T10:53:13;8.93;;;3.70;;
69779;SDS011;57052;55.602;38.096;2024-02-26T10:55:42;10.50;;;3.90;;
69779;SDS011;57052;55.602;38.096;2024-02-26T10:58:12;9.18;;;3.38;;
69779;SDS011;57052;55.602;38.096;2024-02-26T11:00:39;7.25;;;3.33;;
69779;SDS011;57052;55.602;38.096;2024-02-26T11:03:06;10.32;;;3.33;;
69779;SDS011;57052;55.602;38.096;2024-02-26T11:05:34;6.68;;;3.42;;
69779;SDS011;57052;55.602;38.096;2024-02-26T11:08:01;10.25;;;3.42;;
69779;SDS011;57052;55.602;38.096;2024-02-26T11:10:29;8.30;;;3.08;;
69779;SDS011;57052;55.602;38.096;2024-02-26T11:12:55;6.40;;;3.10;;
69779;SDS011;57052;55.602;38.096;2024-02-26T11:18:12;11.95;;;3.55;;
69779;SDS011;57052;55.602;38.096;2024-02-26T11:20:40;9.35;;;3.38;;
69779;SDS011;57052;55.602;38.096;2024-02-26T11:23:06;5.57;;;2.80;;
69779;SDS011;57052;55.602;38.096;2024-02-26T11:25:34;9.90;;;3.83;;
69779;SDS011;57052;55.602;38.096;2024-02-26T11:28:02;10.02;;;3.47;;
69779;SDS011;57052;55.602;38.096;2024-02-26T11:30:31;8.85;;;3.28;;
69779;SDS011;57052;55.602;38.096;2024-02-26T11:33:00;8.38;;;3.35;;
69779;SDS011;57052;55.602;38.096;2024-02-26T11:35:27;7.10;;;2.95;;
69779;SDS011;57052;55.602;38.096;2024-02-26T11:37:54;9.55;;;3.38;;
69779;SDS011;57052;55.602;38.096;2024-02-26T11:40:25;8.82;;;3.40;;
69779;SDS011;57052;55.602;38.096;2024-02-26T11:42:51;9.27;;;3.70;;
69779;SDS011;57052;55.602;38.096;2024-02-26T11:48:12;6.53;;;3.35;;
69779;SDS011;57052;55.602;38.096;2024-02-26T11:50:39;9.05;;;2.97;;
69779;SDS011;57052;55.602;38.096;2024-02-26T12:01:40;9.68;;;3.67;;
69779;SDS011;57052;55.602;38.096;2024-02-26T12:04:13;6.72;;;3.28;;
69779;SDS011;57052;55.602;38.096;2024-02-26T12:06:42;9.57;;;3.03;;
69779;SDS011;57052;55.602;38.096;2024-02-26T12:09:10;9.02;;;3.35;;
69779;SDS011;57052;55.602;38.096;2024-02-26T12:11:38;9.05;;;3.25;;
69779;SDS011;57052;55.602;38.096;2024-02-26T12:14:05;8.82;;;3.35;;
69779;SDS011;57052;55.602;38.096;2024-02-26T12:16:39;8.68;;;2.83;;
69779;SDS011;57052;55.602;38.096;2024-02-26T12:19:08;7.05;;;3.20;;
69779;SDS011;57052;55.602;38.096;2024-02-26T12:21:37;7.57;;;3.05;;
69779;SDS011;57052;55.602;38.096;2024-02-26T12:24:07;10.25;;;2.85;;
69779;SDS011;57052;55.602;38.096;2024-02-26T12:26:36;7.88;;;2.90;;
69779;SDS011;57052;55.602;38.096;2024-02-26T12:29:02;9.32;;;3.67;;
69779;SDS011;57052;55.602;38.096;2024-02-26T12:31:27;6.43;;;2.63;;
69779;SDS011;57052;55.602;38.096;2024-02-26T12:33:54;7.95;;;2.50;;
69779;SDS011;57052;55.602;38.096;2024-02-26T12:36:20;5.03;;;2.83;;
69779;SDS011;57052;55.602;38.096;2024-02-26T12:38:48;6.53;;;2.78;;
69779;SDS011;57052;55.602;38.096;2024-02-26T12:41:16;6.90;;;2.80;;
69779;SDS011;57052;55.602;38.096;2024-02-26T12:43:42;9.80;;;2.72;;
69779;SDS011;57052;55.602;38.096;2024-02-26T12:46:08;9.98;;;3.33;;
69779;SDS011;57052;55.602;38.096;2024-02-26T12:48:33;6.30;;;2.97;;
69779;SDS011;57052;55.602;38.096;2024-02-26T12:50:59;8.48;;;3.13;;
69779;SDS011;57052;55.602;38.096;2024-02-26T12:53:26;6.72;;;3.10;;
69779;SDS011;57052;55.602;38.096;2024-02-26T12:55:55;6.68;;;3.15;;
69779;SDS011;57052;55.602;38.096;2024-02-26T12:58:21;6.95;;;2.85;;
69779;SDS011;57052;55.602;38.096;2024-02-26T13:00:52;8.13;;;2.70;;
69779;SDS011;57052;55.602;38.096;2024-02-26T13:03:19;7.97;;;2.85;;
69779;SDS011;57052;55.602;38.096;2024-02-26T13:05:46;6.38;;;3.08;;
69779;SDS011;57052;55.602;38.096;2024-02-26T13:08:21;9.77;;;3.00;;
69779;SDS011;57052;55.602;38.096;2024-02-26T13:10:48;7.07;;;2.92;;
69779;SDS011;57052;55.602;38.096;2024-02-26T13:13:15;5.57;;;2.75;;
69779;SDS011;57052;55.602;38.096;2024-02-26T13:15:42;9.55;;;3.20;;
69779;SDS011;57052;55.602;38.096;2024-02-26T13:18:09;6.18;;;2.42;;
69779;SDS011;57052;55.602;38.096;2024-02-26T13:20:36;7.20;;;3.00;;
69779;SDS011;57052;55.602;38.096;2024-02-26T13:23:06;8.68;;;3.00;;
69779;SDS011;57052;55.602;38.096;2024-02-26T13:25:34;6.32;;;2.60;;
69779;SDS011;57052;55.602;38.096;2024-02-26T13:28:08;6.00;;;2.72;;
69779;SDS011;57052;55.602;38.096;2024-02-26T13:30:35;6.63;;;2.70;;
69779;SDS011;57052;55.602;38.096;2024-02-26T13:33:12;6.60;;;2.40;;
69779;SDS011;57052;55.602;38.096;2024-02-26T13:35:38;9.45;;;2.80;;
69779;SDS011;57052;55.602;38.096;2024-02-26T13:38:05;8.13;;;2.55;;
69779;SDS011;57052;55.602;38.096;2024-02-26T13:40:31;7.53;;;3.28;;
69779;SDS011;57052;55.602;38.096;2024-02-26T13:42:58;6.85;;;2.90;;
69779;SDS011;57052;55.602;38.096;2024-02-26T13:45:23;6.65;;;3.00;;
69779;SDS011;57052;55.602;38.096;2024-02-26T13:47:49;5.78;;;2.85;;
69779;SDS011;57052;55.602;38.096;2024-02-26T13:50:15;8.93;;;2.90;;
69779;SDS011;57052;55.602;38.096;2024-02-26T13:52:41;7.75;;;2.92;;
69779;SDS011;57052;55.602;38.096;2024-02-26T13:55:08;5.28;;;2.90;;
69779;SDS011;57052;55.602;38.096;2024-02-26T13:57:34;8.10;;;3.05;;
69779;SDS011;57052;55.602;38.096;2024-02-26T13:59:59;6.68;;;2.95;;
69779;SDS011;57052;55.602;38.096;2024-02-26T14:02:25;8.38;;;3.10;;
69779;SDS011;57052;55.602;38.096;2024-02-26T14:04:51;6.78;;;2.72;;
69779;SDS011;57052;55.602;38.096;2024-02-26T14:07:17;9.20;;;3.15;;
69779;SDS011;57052;55.602;38.096;2024-02-26T14:09:42;8.07;;;2.92;;
69779;SDS011;57052;55.602;38.096;2024-02-26T14:12:09;6.75;;;2.95;;
69779;SDS011;57052;55.602;38.096;2024-02-26T14:14:35;9.10;;;3.17;;
69779;SDS011;57052;55.602;38.096;2024-02-26T14:17:03;7.50;;;3.20;;
69779;SDS011;57052;55.602;38.096;2024-02-26T14:19:29;7.30;;;3.40;;
69779;SDS011;57052;55.602;38.096;2024-02-26T14:21:55;7.57;;;3.70;;
69779;SDS011;57052;55.602;38.096;2024-02-26T14:24:21;6.82;;;3.25;;
69779;SDS011;57052;55.602;38.096;2024-02-26T14:26:46;8.15;;;3.40;;
69779;SDS011;57052;55.602;38.096;2024-02-26T14:29:12;8.13;;;3.17;;
69779;SDS011;57052;55.602;38.096;2024-02-26T14:31:38;9.52;;;3.83;;
69779;SDS011;57052;55.602;38.096;2024-02-26T14:34:04;9.63;;;3.83;;
69779;SDS011;57052;55.602;38.096;2024-02-26T14:36:29;8.43;;;3.78;;
69779;SDS011;57052;55.602;38.096;2024-02-26T14:38:55;6.70;;;3.10;;
69779;SDS011;57052;55.602;38.096;2024-02-26T14:41:21;11.35;;;3.38;;
69779;SDS011;57052;55.602;38.096;2024-02-26T14:43:46;7.18;;;3.00;;
69779;SDS011;57052;55.602;38.096;2024-02-26T14:46:12;6.32;;;3.50;;
69779;SDS011;57052;55.602;38.096;2024-02-26T14:48:38;10.02;;;4.28;;